ECP weather

Northwest Florida Beaches International Airport
Panama City Beach, Florida, United States

Public forecast

Using degrees Fahrenheit for public forecast. Weather courtesy of forecast.io.

METAR (pilot weather report)

Retrieved 2018/09/21 18:53 UTC (24 minutes ago):

KECP 211853Z COR 07006KT 10SM SCT048 SCT065 32/22 A3002 RMK AO2 LTG DSNT SE SLP178 T03220217

TAF (pilot weather forecast)

Retrieved 2018/09/21 18:22 UTC (55 minutes ago):

TAF KECP 211720Z 2118/2218 10007KT P6SM SCT040 TEMPO 2118/2120 4SM TSRA BKN040CB FM221500 15006KT P6SM FEW030